Fortune Amaryllis — VRDT3 — position and weather

sailwx.info

Track history (hours):
 
Tides and Currents Weather Stations Pressure Air Temp Water Temp Dewpoint Dewpoint Depression Visibility Wind Speed Wind Dir Waves Ship Positions

Fortune Amaryllis

Last reported at 2017-Oct-22 01:16 UTC. Time now 2017-Oct-22 17:40 UTC.
Position N 41°27' E 028°60'.

Length 175 m; draft 9.8 m.

Type: Cargo ship. MMSI: 477046800.

Date/timePositionNaut miles runAvg speedWind from/ knotsBaromVisibWave heightAir tempDewpointWater temp
2017-Oct-22 01:16N 41°27' E 028°60'0 0.7
2017-Oct-22 01:01N 41°27' E 028°60'0 0.6
2017-Oct-22 00:30N 41°27' E 028°59'0 0.7
2017-Oct-22 00:01N 41°27' E 028°59'0 0.6
2017-Oct-21 23:30N 41°26' E 028°59'0 0.7
2017-Oct-21 23:00N 41°26' E 028°59'0 0.7
2017-Oct-21 22:31N 41°26' E 028°59'0 0.6
2017-Oct-21 21:59N 41°25' E 028°59'0 0.7
2017-Oct-21 21:30N 41°25' E 028°59'0 0.5
2017-Oct-21 20:40N 41°25' E 028°59'0 1.2
2017-Oct-21 20:30N 41°25' E 028°59'99 7.6
2017-Oct-21 07:34N 42°59' E 029°39'213.5
2017-Oct-21 07:26N 43°01' E 029°39'2913.5
2017-Oct-21 05:15N 43°29' E 029°48'413.3
2017-Oct-21 04:58N 43°33' E 029°50'713.6
2017-Oct-21 04:28N 43°39' E 029°53'613.7
2017-Oct-21 04:00N 43°45' E 029°57'1313.4
2017-Oct-21 03:04N 43°57' E 030°03'113.6
2017-Oct-21 03:00N 43°58' E 030°03'713.4
2017-Oct-21 02:30N 44°04' E 030°07'713.4
2017-Oct-21 02:01N 44°10' E 030°10'713.5
2017-Oct-21 01:30N 44°17' E 030°14'713.3
2017-Oct-21 01:00N 44°23' E 030°17'10913.1
2017-Oct-20 16:41N 46°07' E 031°05'212.8
2017-Oct-20 16:30N 46°08' E 031°03'711.7
2017-Oct-20 15:52N 46°14' E 030°55'5 8.8
2017-Oct-20 15:21N 46°18' E 030°55'410.3
2017-Oct-20 15:00N 46°22' E 030°55'510.5
2017-Oct-20 14:30N 46°27' E 030°55'8 7.8
2017-Oct-20 13:30N 46°34' E 031°01'510.1
2017-Oct-20 13:00N 46°35' E 031°08'610.2
2017-Oct-20 12:24N 46°35' E 031°17'1 0.2
2017-Oct-20 09:01N 46°35' E 031°18'0 0.1
2017-Oct-20 08:49N 46°35' E 031°18'0 0.0
2017-Oct-20 08:19N 46°35' E 031°18'0 0.0
2017-Oct-20 06:01N 46°35' E 031°18'0 0.0
2017-Oct-20 04:22N 46°35' E 031°18'0 0.0
2017-Oct-20 03:52N 46°35' E 031°18'0 0.0
2017-Oct-19 21:13N 46°35' E 031°18'0 0.1
2017-Oct-19 20:58N 46°35' E 031°18'0 0.0
2017-Oct-19 20:25N 46°35' E 031°18'0 0.0
2017-Oct-19 19:52N 46°35' E 031°18'0 0.0
2017-Oct-19 19:22N 46°35' E 031°18'0 0.0
2017-Oct-19 18:58N 46°35' E 031°18'0 0.0
2017-Oct-19 18:28N 46°35' E 031°18'0 0.0
2017-Oct-19 17:58N 46°35' E 031°18'0 0.0
2017-Oct-19 17:28N 46°35' E 031°18'0 0.0
2017-Oct-19 16:58N 46°35' E 031°18'0 0.3
2017-Oct-19 16:28N 46°35' E 031°18'0 0.4
2017-Oct-19 16:00N 46°35' E 031°18'2 3.1
2017-Oct-19 15:30N 46°35' E 031°20'4 7.1
2017-Oct-19 15:00N 46°35' E 031°25'4 7.4
2017-Oct-19 14:30N 46°35' E 031°31'4 8.1
2017-Oct-19 14:00N 46°35' E 031°36'4 8.9
2017-Oct-19 13:30N 46°36' E 031°43'4 8.9
2017-Oct-19 13:00N 46°36' E 031°49'4 7.5
2017-Oct-19 12:30N 46°38' E 031°54'3 6.8
2017-Oct-19 12:00N 46°41' E 031°56'4 7.5
2017-Oct-19 11:30N 46°45' E 031°54'4 8.0
2017-Oct-19 11:00N 46°49' E 031°54'5 9.6
2017-Oct-19 10:30N 46°52' E 031°59'4 7.8
2017-Oct-19 10:00N 46°56' E 032°01'1 2.1
2017-Oct-19 09:28N 46°57' E 032°00'0 0.0
2017-Oct-19 08:58N 46°57' E 032°00'0 0.0
2017-Oct-19 08:28N 46°57' E 032°00'0 0.0
2017-Oct-19 07:58N 46°57' E 032°00'0 0.0
2017-Oct-19 07:28N 46°57' E 032°00'0 0.0
2017-Oct-19 06:58N 46°57' E 032°00'0 0.0
2017-Oct-19 06:28N 46°57' E 032°00'0 0.0
2017-Oct-19 05:58N 46°57' E 032°00'0 0.0
2017-Oct-19 05:28N 46°57' E 032°00'0 0.0
2017-Oct-19 04:58N 46°57' E 032°00'0 0.0
2017-Oct-19 04:28N 46°57' E 032°00'0 0.0
2017-Oct-19 03:58N 46°57' E 032°00'0 0.0
2017-Oct-19 03:28N 46°57' E 032°00'0 0.0
2017-Oct-19 02:58N 46°57' E 032°00'0 0.0
2017-Oct-19 02:28N 46°57' E 032°00'0 0.0
2017-Oct-19 01:58N 46°57' E 032°00'0 0.0
2017-Oct-19 01:28N 46°57' E 032°00'0 0.0
2017-Oct-19 00:58N 46°57' E 032°00'0 0.0
2017-Oct-19 00:28N 46°57' E 032°00'0 0.0
2017-Oct-18 23:58N 46°57' E 032°00'0 0.0
2017-Oct-18 23:28N 46°57' E 032°00'0 0.0
2017-Oct-18 22:58N 46°57' E 032°00'0 0.1
2017-Oct-18 22:28N 46°57' E 032°00'0 0.0
2017-Oct-18 21:58N 46°57' E 032°00'0 0.0
2017-Oct-18 21:28N 46°57' E 032°00'0 0.0
2017-Oct-18 20:58N 46°57' E 032°00'0 0.1
2017-Oct-18 20:28N 46°57' E 032°00'0 0.0
2017-Oct-18 19:58N 46°57' E 032°00'0 0.0
2017-Oct-18 19:28N 46°57' E 032°00'0 0.0
2017-Oct-18 18:58N 46°57' E 032°00'0 0.0
2017-Oct-18 18:28N 46°57' E 032°00'0 0.0
2017-Oct-18 17:58N 46°57' E 032°00'0 0.0
2017-Oct-18 17:28N 46°57' E 032°00'0 0.0
2017-Oct-18 16:58N 46°57' E 032°00'0 0.1
2017-Oct-18 16:28N 46°57' E 032°00'0 0.0
2017-Oct-18 15:58N 46°57' E 032°00'0 0.0
2017-Oct-18 15:28N 46°57' E 032°00'0 0.0
2017-Oct-18 14:58N 46°57' E 032°00'0 0.0
2017-Oct-18 13:58N 46°57' E 032°00'0 0.1
2017-Oct-18 13:28N 46°57' E 032°00'0 0.1
2017-Oct-18 12:58N 46°57' E 032°00'0 0.1
2017-Oct-18 12:28N 46°56' E 032°00'0 0.0
2017-Oct-18 11:55N 46°56' E 032°00'0 0.0
2017-Oct-18 09:22N 46°56' E 032°00'0 0.0
2017-Oct-18 08:58N 46°57' E 032°00'0 0.0
2017-Oct-18 08:28N 46°57' E 032°00'0 0.0
2017-Oct-18 07:58N 46°56' E 032°00'0 0.0
2017-Oct-18 07:28N 46°56' E 032°00'0 0.0
2017-Oct-18 06:58N 46°56' E 032°00'0 0.0
2017-Oct-18 06:28N 46°56' E 032°00'0 0.0
2017-Oct-18 05:58N 46°56' E 032°00'0 0.0
2017-Oct-18 05:28N 46°56' E 032°00'0 0.1
2017-Oct-18 04:58N 46°56' E 032°00'0 0.1
2017-Oct-18 04:28N 46°56' E 032°00'0 0.1
2017-Oct-18 03:58N 46°56' E 032°00'0 0.0
2017-Oct-18 03:28N 46°56' E 032°00'0 0.0
2017-Oct-18 02:58N 46°56' E 032°00'0 0.0
2017-Oct-18 02:28N 46°56' E 032°00'0 0.0
2017-Oct-18 01:58N 46°56' E 032°00'0 0.0
2017-Oct-18 01:28N 46°56' E 032°00'0 0.0
2017-Oct-18 00:58N 46°56' E 032°00'0 0.0
2017-Oct-18 00:28N 46°56' E 032°00'0 0.0
2017-Oct-17 23:58N 46°56' E 032°00'0 0.0
2017-Oct-17 23:28N 46°56' E 032°00'0 0.0
2017-Oct-17 22:58N 46°56' E 032°00'0 0.0
2017-Oct-17 22:28N 46°56' E 032°00'0 0.0
2017-Oct-17 21:58N 46°56' E 032°00'0 0.1
2017-Oct-17 21:28N 46°56' E 032°00'0 0.1
2017-Oct-17 20:58N 46°56' E 032°00'0 0.0
2017-Oct-17 20:28N 46°56' E 032°00'0 0.0
2017-Oct-17 19:58N 46°56' E 032°00'0 0.0
2017-Oct-17 19:28N 46°56' E 032°00'0 0.0
2017-Oct-17 18:58N 46°56' E 032°00'0 0.0
2017-Oct-17 18:28N 46°56' E 032°00'0 0.0
2017-Oct-17 17:58N 46°56' E 032°00'0 0.0
2017-Oct-17 17:28N 46°56' E 032°00'0 0.1
2017-Oct-17 16:58N 46°56' E 032°00'0 0.0
2017-Oct-17 16:28N 46°56' E 032°00'0 0.0
2017-Oct-17 15:58N 46°56' E 032°00'0 0.0
2017-Oct-17 15:28N 46°56' E 032°00'0 0.0
2017-Oct-17 14:58N 46°56' E 032°00'0 0.1
2017-Oct-17 14:28N 46°56' E 032°00'0 0.1
2017-Oct-17 13:58N 46°56' E 032°01'0 0.0
2017-Oct-17 13:28N 46°56' E 032°01'0 0.0
2017-Oct-17 12:58N 46°56' E 032°01'0 0.0
2017-Oct-17 12:28N 46°56' E 032°01'0 0.0
2017-Oct-17 11:58N 46°56' E 032°01'0 0.0
2017-Oct-17 11:28N 46°56' E 032°01'0 0.0
2017-Oct-17 10:58N 46°56' E 032°01'0 0.0
2017-Oct-17 10:28N 46°56' E 032°01'0 0.0
2017-Oct-17 09:58N 46°56' E 032°01'0 0.0
2017-Oct-17 09:28N 46°56' E 032°01'0 0.0
2017-Oct-17 08:58N 46°56' E 032°01'0 0.0
2017-Oct-17 08:28N 46°57' E 032°01'0 0.2
2017-Oct-17 07:58N 46°57' E 032°00'0 0.1
2017-Oct-17 07:28N 46°57' E 032°00'0 0.1
2017-Oct-17 06:58N 46°57' E 032°00'0 0.0
2017-Oct-17 06:28N 46°57' E 032°00'0 0.0
2017-Oct-17 05:58N 46°57' E 032°00'0 0.0
2017-Oct-17 05:28N 46°57' E 032°00'0 0.0
2017-Oct-17 04:58N 46°57' E 032°00'0 0.0
2017-Oct-17 04:28N 46°57' E 032°00'0 0.0
2017-Oct-17 03:58N 46°57' E 032°00'0 0.0
2017-Oct-17 03:16N 46°57' E 032°00'0 0.0
2017-Oct-17 02:58N 46°57' E 032°00'0 0.0
2017-Oct-17 02:28N 46°57' E 032°00'0 0.0
2017-Oct-17 01:58N 46°57' E 032°00'0 0.0
2017-Oct-17 01:28N 46°57' E 032°00'0 0.0
2017-Oct-17 00:58N 46°57' E 032°00'0 0.0
2017-Oct-17 00:28N 46°57' E 032°00'0 0.0
2017-Oct-16 23:58N 46°57' E 032°00'0 0.0
2017-Oct-16 23:28N 46°57' E 032°00'0 0.0
2017-Oct-16 22:58N 46°57' E 032°00'0 0.0
2017-Oct-16 22:28N 46°57' E 032°00'0 0.0
2017-Oct-16 21:58N 46°57' E 032°00'0 0.0
2017-Oct-16 21:28N 46°57' E 032°00'0 0.0
2017-Oct-16 20:58N 46°57' E 032°00'0 0.0
2017-Oct-16 20:28N 46°57' E 032°00'0 0.0
2017-Oct-16 19:58N 46°57' E 032°00'0 0.0
2017-Oct-16 19:28N 46°57' E 032°00'0 0.0
2017-Oct-16 18:58N 46°57' E 032°00'0 0.0
2017-Oct-16 18:28N 46°57' E 032°00'0 0.0
2017-Oct-16 17:58N 46°57' E 032°00'0 0.0
2017-Oct-16 17:28N 46°57' E 032°00'0 0.1
2017-Oct-16 16:58N 46°57' E 032°00'0 0.1
2017-Oct-16 16:28N 46°57' E 032°00'0 0.1
2017-Oct-16 15:58N 46°57' E 032°01'0 0.1
2017-Oct-16 15:28N 46°57' E 032°01'0 0.1
2017-Oct-16 14:58N 46°56' E 032°01'0 0.0
2017-Oct-16 13:58N 46°56' E 032°01'0 0.0
2017-Oct-16 13:28N 46°56' E 032°01'0 0.0
2017-Oct-16 12:58N 46°56' E 032°00'0 0.0
2017-Oct-16 12:28N 46°56' E 032°01'0 0.0
2017-Oct-16 11:58N 46°56' E 032°00'0 0.0
2017-Oct-16 11:28N 46°56' E 032°00'0 0.0
2017-Oct-16 10:58N 46°56' E 032°01'0 0.0
2017-Oct-16 10:28N 46°56' E 032°01'0 0.0
2017-Oct-16 09:58N 46°56' E 032°01'0 0.0
2017-Oct-16 09:25N 46°56' E 032°01'0 0.0
2017-Oct-16 08:58N 46°56' E 032°01'0 0.0
2017-Oct-16 08:28N 46°56' E 032°00'0 0.0
2017-Oct-16 07:58N 46°56' E 032°00'0 0.0
2017-Oct-16 07:28N 46°56' E 032°01'0 0.0
2017-Oct-16 06:58N 46°56' E 032°01'0 0.0
2017-Oct-16 06:28N 46°56' E 032°01'0 0.0
2017-Oct-16 05:58N 46°56' E 032°01'0 0.0
2017-Oct-16 05:28N 46°56' E 032°01'0 0.0
2017-Oct-16 04:58N 46°56' E 032°01'0 0.0
2017-Oct-16 04:28N 46°56' E 032°01'0 0.0
2017-Oct-16 03:58N 46°56' E 032°00'0 0.0
2017-Oct-16 03:28N 46°56' E 032°00'0 0.0
2017-Oct-16 02:58N 46°56' E 032°01'0 0.0
2017-Oct-16 02:28N 46°56' E 032°01'0 0.0
2017-Oct-16 01:58N 46°56' E 032°01'0 0.0
2017-Oct-16 01:28N 46°56' E 032°01'0 0.0
2017-Oct-16 00:58N 46°56' E 032°01'0 0.0
2017-Oct-16 00:28N 46°56' E 032°00'0 0.0
2017-Oct-15 23:58N 46°56' E 032°00'0 0.0
2017-Oct-15 23:25N 46°56' E 032°00'0 0.0
2017-Oct-15 22:55N 46°56' E 032°00'0 0.0
2017-Oct-15 22:28N 46°56' E 032°00'0 0.0
2017-Oct-15 21:58N 46°56' E 032°00'0 0.0
2017-Oct-15 21:28N 46°56' E 032°00'0 0.0
2017-Oct-15 20:58N 46°56' E 032°01'0 0.0
2017-Oct-15 20:28N 46°56' E 032°01'0 0.0
2017-Oct-15 19:58N 46°56' E 032°01'0 0.0
2017-Oct-15 19:28N 46°56' E 032°01'0 0.0
2017-Oct-15 18:58N 46°56' E 032°01'0 0.0
2017-Oct-15 18:28N 46°56' E 032°01'0 0.1
2017-Oct-15 17:58N 46°56' E 032°01'0 0.2
2017-Oct-15 17:28N 46°56' E 032°01'0 0.0
2017-Oct-15 16:58N 46°57' E 032°01'0 0.0
2017-Oct-15 16:28N 46°56' E 032°01'0 0.0
2017-Oct-15 15:58N 46°56' E 032°01'0 0.0
2017-Oct-15 15:28N 46°56' E 032°01'0 0.0
2017-Oct-15 14:58N 46°56' E 032°01'0 0.0
2017-Oct-15 13:58N 46°57' E 032°01'0 0.0
2017-Oct-15 13:28N 46°57' E 032°01'0 0.0
2017-Oct-15 12:58N 46°57' E 032°01'0 0.0
2017-Oct-15 12:28N 46°57' E 032°01'0 0.0
2017-Oct-15 11:58N 46°57' E 032°01'0 0.0
2017-Oct-15 11:28N 46°57' E 032°01'0 0.0
2017-Oct-15 10:58N 46°57' E 032°01'0 0.0
2017-Oct-15 10:25N 46°57' E 032°01'0 0.0
2017-Oct-15 09:58N 46°57' E 032°01'0 0.0
2017-Oct-15 09:28N 46°57' E 032°01'0 0.0
2017-Oct-15 08:58N 46°57' E 032°01'0 0.0
2017-Oct-15 08:28N 46°57' E 032°01'0 0.0
2017-Oct-15 07:58N 46°57' E 032°01'0 0.1
2017-Oct-15 07:28N 46°57' E 032°01'0 0.0
2017-Oct-15 06:58N 46°57' E 032°01'0 0.0
2017-Oct-15 06:28N 46°57' E 032°01'0 0.0
2017-Oct-15 05:58N 46°57' E 032°01'0 0.0
2017-Oct-15 05:28N 46°57' E 032°01'0 0.0
2017-Oct-15 04:58N 46°57' E 032°01'0 0.0
2017-Oct-15 04:28N 46°57' E 032°01'0 0.0
2017-Oct-15 03:58N 46°57' E 032°01'0 0.0
2017-Oct-15 03:28N 46°57' E 032°01'0 0.0
2017-Oct-15 02:58N 46°57' E 032°01'0 0.0
2017-Oct-15 02:28N 46°57' E 032°01'0 0.0
2017-Oct-15 01:58N 46°57' E 032°01'0 0.0
2017-Oct-15 01:28N 46°57' E 032°01'0 0.0
2017-Oct-15 00:58N 46°57' E 032°01'0 0.0
2017-Oct-15 00:28N 46°57' E 032°01'0 0.0
2017-Oct-14 23:58N 46°57' E 032°01'0 0.0
2017-Oct-14 23:28N 46°56' E 032°01'0 0.0
2017-Oct-14 22:58N 46°56' E 032°01'0 0.0
2017-Oct-14 22:28N 46°56' E 032°01'0 0.0
2017-Oct-14 21:58N 46°56' E 032°01'0 0.0
2017-Oct-14 21:28N 46°57' E 032°01'0 0.0
2017-Oct-14 20:58N 46°57' E 032°01'0 0.1
2017-Oct-14 20:28N 46°56' E 032°01'0 0.0
2017-Oct-14 19:58N 46°56' E 032°01'0 0.1
2017-Oct-14 19:28N 46°56' E 032°01'0 0.1
2017-Oct-14 18:58N 46°56' E 032°00'0 0.2
2017-Oct-14 18:28N 46°57' E 032°01'0 0.2
2017-Oct-14 17:58N 46°57' E 032°01'0 0.1
2017-Oct-14 17:28N 46°57' E 032°00'0 0.3
2017-Oct-14 17:00N 46°57' E 032°00'1 1.0
2017-Oct-14 16:31N 46°57' E 031°60'0 0.0
2017-Oct-14 15:57N 46°57' E 031°60'0 0.0
2017-Oct-14 15:30N 46°57' E 031°60'0 0.0
2017-Oct-14 15:00N 46°57' E 031°60'0 0.0
2017-Oct-14 14:30N 46°57' E 031°60'0 0.0
2017-Oct-14 14:00N 46°57' E 031°60'0 0.0
2017-Oct-14 13:30N 46°57' E 031°60'0 0.0
2017-Oct-14 13:00N 46°57' E 031°60'0 0.0
2017-Oct-14 12:30N 46°57' E 031°60'0 0.0
2017-Oct-14 12:00N 46°57' E 031°60'0 0.0
2017-Oct-14 11:30N 46°57' E 031°60'0 0.0
2017-Oct-14 11:00N 46°57' E 031°60'0 0.0
2017-Oct-14 10:30N 46°57' E 031°60'0 0.0
2017-Oct-14 10:00N 46°57' E 031°60'0 0.0
2017-Oct-14 09:30N 46°57' E 031°60'0 0.0
2017-Oct-14 09:00N 46°57' E 031°60'0 0.0
2017-Oct-14 08:30N 46°57' E 031°60'0 0.0
2017-Oct-14 08:00N 46°57' E 031°60'0 0.0
2017-Oct-14 07:30N 46°57' E 031°60'0 0.0
2017-Oct-14 07:00N 46°57' E 031°60'0 0.0
2017-Oct-14 06:30N 46°57' E 031°60'0 0.0
2017-Oct-14 06:00N 46°57' E 031°60'0 0.0
2017-Oct-14 05:30N 46°57' E 031°60'0 0.0
2017-Oct-14 05:00N 46°57' E 031°60'0 0.0
2017-Oct-14 04:30N 46°57' E 031°60'0 0.0
2017-Oct-14 04:00N 46°57' E 031°60'0 0.0
2017-Oct-14 03:30N 46°57' E 031°60'0 0.0
2017-Oct-14 03:00N 46°57' E 031°60'0 0.0
2017-Oct-14 02:30N 46°57' E 031°60'0 0.0
2017-Oct-14 02:00N 46°57' E 031°60'0 0.0
2017-Oct-14 01:30N 46°57' E 031°60'0 0.0
2017-Oct-14 01:00N 46°57' E 031°60'0 0.0
2017-Oct-14 00:30N 46°57' E 031°60'0 0.0
2017-Oct-14 00:00N 46°57' E 031°60'0 0.0
2017-Oct-13 23:30N 46°57' E 031°60'0 0.0
2017-Oct-13 23:00N 46°57' E 031°60'0 0.0
2017-Oct-13 22:30N 46°57' E 031°60'0 0.0
2017-Oct-13 22:00N 46°57' E 031°60'0 0.0
2017-Oct-13 21:30N 46°57' E 031°60'0 0.0
2017-Oct-13 21:00N 46°57' E 031°60'0 0.0
2017-Oct-13 20:30N 46°57' E 031°60'0 0.0
2017-Oct-13 20:00N 46°57' E 031°60'0 0.0
2017-Oct-13 19:30N 46°57' E 031°60'0 0.0
2017-Oct-13 19:00N 46°57' E 031°60'0 0.0
2017-Oct-13 18:30N 46°57' E 031°60'0 0.0
2017-Oct-13 18:00N 46°57' E 031°60'0 0.0
2017-Oct-13 17:30N 46°57' E 031°60'0 0.0
2017-Oct-13 17:00N 46°57' E 031°60'0 0.0
2017-Oct-13 16:30N 46°57' E 031°60'0 0.0
2017-Oct-13 16:00N 46°57' E 031°60'0 0.0
2017-Oct-13 15:27N 46°57' E 031°60'0 0.0
2017-Oct-13 15:00N 46°57' E 031°60'0 0.0
2017-Oct-13 14:30N 46°57' E 031°60'0 0.0
2017-Oct-13 14:00N 46°57' E 031°60'0 0.0
2017-Oct-13 13:30N 46°57' E 031°60'0 0.0
2017-Oct-13 13:00N 46°57' E 031°60'0 0.0
2017-Oct-13 12:30N 46°57' E 031°60'0 0.0
2017-Oct-13 12:00N 46°57' E 031°60'0 0.0
2017-Oct-13 11:30N 46°57' E 031°60'0 0.0
2017-Oct-13 11:00N 46°57' E 031°60'0 0.0
2017-Oct-13 10:30N 46°57' E 031°60'0 0.0
2017-Oct-13 10:00N 46°57' E 031°60'0 0.0
2017-Oct-13 09:30N 46°57' E 031°60'0 0.0
2017-Oct-13 09:00N 46°57' E 031°60'0 0.0
2017-Oct-13 08:30N 46°57' E 031°60'0 0.0
2017-Oct-13 08:00N 46°57' E 031°60'0 0.0
2017-Oct-13 07:30N 46°57' E 031°60'0 0.0
2017-Oct-13 07:00N 46°57' E 031°60'0 0.0
2017-Oct-13 06:30N 46°57' E 031°60'0 0.0
2017-Oct-13 06:00N 46°57' E 031°60'0 0.0
2017-Oct-13 05:30N 46°57' E 031°60'0 0.0
2017-Oct-13 04:57N 46°57' E 031°60'0 0.0
2017-Oct-13 04:30N 46°57' E 031°60'0 0.0
2017-Oct-13 04:00N 46°57' E 031°60'0 0.0
2017-Oct-13 03:30N 46°57' E 031°60'0 0.0
2017-Oct-13 03:00N 46°57' E 031°60'0 0.0
2017-Oct-13 02:30N 46°57' E 031°60'0 0.0
2017-Oct-13 02:00N 46°57' E 031°60'0 0.0
2017-Oct-13 01:30N 46°57' E 031°60'0 0.0
2017-Oct-13 01:00N 46°57' E 031°60'0 0.0
2017-Oct-13 00:30N 46°57' E 031°60'0 0.0
2017-Oct-13 00:00N 46°57' E 031°60'0 0.0
2017-Oct-12 23:30N 46°57' E 031°60'0 0.0
2017-Oct-12 23:00N 46°57' E 031°60'0 0.0
2017-Oct-12 22:30N 46°57' E 031°60'0 0.0
2017-Oct-12 22:00N 46°57' E 031°60'0 0.0
2017-Oct-12 21:30N 46°57' E 031°60'0 0.0
2017-Oct-12 21:00N 46°57' E 031°60'0 0.0
2017-Oct-12 20:30N 46°57' E 031°60'0 0.0
2017-Oct-12 20:00N 46°57' E 031°60'0 0.0
2017-Oct-12 19:30N 46°57' E 031°60'0 0.0
2017-Oct-12 19:00N 46°57' E 031°60'0 0.0
2017-Oct-12 18:30N 46°57' E 031°60'0 0.0
2017-Oct-12 18:00N 46°57' E 031°60'0 0.0
2017-Oct-12 17:30N 46°57' E 031°60'0 0.0
2017-Oct-12 17:00N 46°57' E 031°60'0 0.0
2017-Oct-12 16:30N 46°57' E 031°60'0 0.0
2017-Oct-12 16:00N 46°57' E 031°60'0 0.0
2017-Oct-12 15:30N 46°57' E 031°60'0 0.0
2017-Oct-12 15:00N 46°57' E 031°60'0 0.0
2017-Oct-12 14:30N 46°57' E 031°60'0 0.0
2017-Oct-12 14:00N 46°57' E 031°60'0 0.0
2017-Oct-12 13:30N 46°57' E 031°60'0 0.0
2017-Oct-12 12:57N 46°57' E 031°60'0 0.0
2017-Oct-12 12:30N 46°57' E 031°60'0 0.0
2017-Oct-12 11:54N 46°57' E 031°60'0 0.0
2017-Oct-12 11:30N 46°57' E 031°60'0 0.0
2017-Oct-12 11:00N 46°57' E 031°60'0 0.0
2017-Oct-12 10:30N 46°57' E 031°60'0 0.0
2017-Oct-12 10:00N 46°57' E 031°60'0 0.0
2017-Oct-12 09:30N 46°57' E 031°60'0 0.0
2017-Oct-12 09:00N 46°57' E 031°60'0 0.0
2017-Oct-12 08:30N 46°57' E 031°60'0 0.0
2017-Oct-12 08:00N 46°57' E 031°60'0 0.0
2017-Oct-12 07:30N 46°57' E 031°60'0 0.0
2017-Oct-12 07:00N 46°57' E 031°60'0 0.0
2017-Oct-12 06:30N 46°57' E 031°60'0 0.0
2017-Oct-12 06:00N 46°57' E 031°60'0 0.0
2017-Oct-12 05:30N 46°57' E 031°60'0 0.0
2017-Oct-12 04:57N 46°57' E 031°60'0 0.0
2017-Oct-12 04:30N 46°57' E 031°60'0 0.0
2017-Oct-12 04:00N 46°57' E 031°60'0 0.0
2017-Oct-12 03:30N 46°57' E 031°60'0 0.0
2017-Oct-12 03:00N 46°57' E 031°60'0 0.0
2017-Oct-12 02:30N 46°57' E 031°60'0 0.0
2017-Oct-12 02:00N 46°57' E 031°60'0 0.0
2017-Oct-12 01:30N 46°57' E 031°60'  
Track history (hours):
 
Tides and Currents Weather Stations Pressure Air Temp Water Temp Dewpoint Dewpoint Depression Visibility Wind Speed Wind Dir Waves Ship Positions

Fortune Amaryllis

Last reported at 2017-Oct-22 01:16 UTC. Time now 2017-Oct-22 17:40 UTC.
Position N 41°27' E 028°60'.

Length 175 m; draft 9.8 m.

Type: Cargo ship. MMSI: 477046800.

Date/timePositionNaut miles runAvg speedWind from/ knotsBaromVisibWave heightAir tempDewpointWater temp
2017-Oct-22 01:16N 41°27' E 028°60'0 0.7
2017-Oct-22 01:01N 41°27' E 028°60'0 0.6
2017-Oct-22 00:30N 41°27' E 028°59'0 0.7
2017-Oct-22 00:01N 41°27' E 028°59'0 0.6
2017-Oct-21 23:30N 41°26' E 028°59'0 0.7
2017-Oct-21 23:00N 41°26' E 028°59'0 0.7
2017-Oct-21 22:31N 41°26' E 028°59'0 0.6
2017-Oct-21 21:59N 41°25' E 028°59'0 0.7
2017-Oct-21 21:30N 41°25' E 028°59'0 0.5
2017-Oct-21 20:40N 41°25' E 028°59'0 1.2
2017-Oct-21 20:30N 41°25' E 028°59'99 7.6
2017-Oct-21 07:34N 42°59' E 029°39'213.5
2017-Oct-21 07:26N 43°01' E 029°39'2913.5
2017-Oct-21 05:15N 43°29' E 029°48'413.3
2017-Oct-21 04:58N 43°33' E 029°50'713.6
2017-Oct-21 04:28N 43°39' E 029°53'613.7
2017-Oct-21 04:00N 43°45' E 029°57'1313.4
2017-Oct-21 03:04N 43°57' E 030°03'113.6
2017-Oct-21 03:00N 43°58' E 030°03'713.4
2017-Oct-21 02:30N 44°04' E 030°07'713.4
2017-Oct-21 02:01N 44°10' E 030°10'713.5
2017-Oct-21 01:30N 44°17' E 030°14'713.3
2017-Oct-21 01:00N 44°23' E 030°17'10913.1
2017-Oct-20 16:41N 46°07' E 031°05'212.8
2017-Oct-20 16:30N 46°08' E 031°03'711.7
2017-Oct-20 15:52N 46°14' E 030°55'5 8.8
2017-Oct-20 15:21N 46°18' E 030°55'410.3
2017-Oct-20 15:00N 46°22' E 030°55'510.5
2017-Oct-20 14:30N 46°27' E 030°55'8 7.8
2017-Oct-20 13:30N 46°34' E 031°01'510.1
2017-Oct-20 13:00N 46°35' E 031°08'610.2
2017-Oct-20 12:24N 46°35' E 031°17'1 0.2
2017-Oct-20 09:01N 46°35' E 031°18'0 0.1
2017-Oct-20 08:49N 46°35' E 031°18'0 0.0
2017-Oct-20 08:19N 46°35' E 031°18'0 0.0
2017-Oct-20 06:01N 46°35' E 031°18'0 0.0
2017-Oct-20 04:22N 46°35' E 031°18'0 0.0
2017-Oct-20 03:52N 46°35' E 031°18'0 0.0
2017-Oct-19 21:13N 46°35' E 031°18'0 0.1
2017-Oct-19 20:58N 46°35' E 031°18'0 0.0
2017-Oct-19 20:25N 46°35' E 031°18'0 0.0
2017-Oct-19 19:52N 46°35' E 031°18'0 0.0
2017-Oct-19 19:22N 46°35' E 031°18'0 0.0
2017-Oct-19 18:58N 46°35' E 031°18'0 0.0
2017-Oct-19 18:28N 46°35' E 031°18'0 0.0
2017-Oct-19 17:58N 46°35' E 031°18'0 0.0
2017-Oct-19 17:28N 46°35' E 031°18'0 0.0
2017-Oct-19 16:58N 46°35' E 031°18'0 0.3
2017-Oct-19 16:28N 46°35' E 031°18'0 0.4
2017-Oct-19 16:00N 46°35' E 031°18'2 3.1
2017-Oct-19 15:30N 46°35' E 031°20'4 7.1
2017-Oct-19 15:00N 46°35' E 031°25'4 7.4
2017-Oct-19 14:30N 46°35' E 031°31'4 8.1
2017-Oct-19 14:00N 46°35' E 031°36'4 8.9
2017-Oct-19 13:30N 46°36' E 031°43'4 8.9
2017-Oct-19 13:00N 46°36' E 031°49'4 7.5
2017-Oct-19 12:30N 46°38' E 031°54'3 6.8
2017-Oct-19 12:00N 46°41' E 031°56'4 7.5
2017-Oct-19 11:30N 46°45' E 031°54'4 8.0
2017-Oct-19 11:00N 46°49' E 031°54'5 9.6
2017-Oct-19 10:30N 46°52' E 031°59'4 7.8
2017-Oct-19 10:00N 46°56' E 032°01'1 2.1
2017-Oct-19 09:28N 46°57' E 032°00'0 0.0
2017-Oct-19 08:58N 46°57' E 032°00'0 0.0
2017-Oct-19 08:28N 46°57' E 032°00'0 0.0
2017-Oct-19 07:58N 46°57' E 032°00'0 0.0
2017-Oct-19 07:28N 46°57' E 032°00'0 0.0
2017-Oct-19 06:58N 46°57' E 032°00'0 0.0
2017-Oct-19 06:28N 46°57' E 032°00'0 0.0
2017-Oct-19 05:58N 46°57' E 032°00'0 0.0
2017-Oct-19 05:28N 46°57' E 032°00'0 0.0
2017-Oct-19 04:58N 46°57' E 032°00'0 0.0
2017-Oct-19 04:28N 46°57' E 032°00'0 0.0
2017-Oct-19 03:58N 46°57' E 032°00'0 0.0
2017-Oct-19 03:28N 46°57' E 032°00'0 0.0
2017-Oct-19 02:58N 46°57' E 032°00'0 0.0
2017-Oct-19 02:28N 46°57' E 032°00'0 0.0
2017-Oct-19 01:58N 46°57' E 032°00'0 0.0
2017-Oct-19 01:28N 46°57' E 032°00'0 0.0
2017-Oct-19 00:58N 46°57' E 032°00'0 0.0
2017-Oct-19 00:28N 46°57' E 032°00'0 0.0
2017-Oct-18 23:58N 46°57' E 032°00'0 0.0
2017-Oct-18 23:28N 46°57' E 032°00'0 0.0
2017-Oct-18 22:58N 46°57' E 032°00'0 0.1
2017-Oct-18 22:28N 46°57' E 032°00'0 0.0
2017-Oct-18 21:58N 46°57' E 032°00'0 0.0
2017-Oct-18 21:28N 46°57' E 032°00'0 0.0
2017-Oct-18 20:58N 46°57' E 032°00'0 0.1
2017-Oct-18 20:28N 46°57' E 032°00'0 0.0
2017-Oct-18 19:58N 46°57' E 032°00'0 0.0
2017-Oct-18 19:28N 46°57' E 032°00'0 0.0
2017-Oct-18 18:58N 46°57' E 032°00'0 0.0
2017-Oct-18 18:28N 46°57' E 032°00'0 0.0
2017-Oct-18 17:58N 46°57' E 032°00'0 0.0
2017-Oct-18 17:28N 46°57' E 032°00'0 0.0
2017-Oct-18 16:58N 46°57' E 032°00'0 0.1
2017-Oct-18 16:28N 46°57' E 032°00'0 0.0
2017-Oct-18 15:58N 46°57' E 032°00'0 0.0
2017-Oct-18 15:28N 46°57' E 032°00'0 0.0
2017-Oct-18 14:58N 46°57' E 032°00'0 0.0
2017-Oct-18 13:58N 46°57' E 032°00'0 0.1
2017-Oct-18 13:28N 46°57' E 032°00'0 0.1
2017-Oct-18 12:58N 46°57' E 032°00'0 0.1
2017-Oct-18 12:28N 46°56' E 032°00'0 0.0
2017-Oct-18 11:55N 46°56' E 032°00'0 0.0
2017-Oct-18 09:22N 46°56' E 032°00'0 0.0
2017-Oct-18 08:58N 46°57' E 032°00'0 0.0
2017-Oct-18 08:28N 46°57' E 032°00'0 0.0
2017-Oct-18 07:58N 46°56' E 032°00'0 0.0
2017-Oct-18 07:28N 46°56' E 032°00'0 0.0
2017-Oct-18 06:58N 46°56' E 032°00'0 0.0
2017-Oct-18 06:28N 46°56' E 032°00'0 0.0
2017-Oct-18 05:58N 46°56' E 032°00'0 0.0
2017-Oct-18 05:28N 46°56' E 032°00'0 0.1
2017-Oct-18 04:58N 46°56' E 032°00'0 0.1
2017-Oct-18 04:28N 46°56' E 032°00'0 0.1
2017-Oct-18 03:58N 46°56' E 032°00'0 0.0
2017-Oct-18 03:28N 46°56' E 032°00'0 0.0
2017-Oct-18 02:58N 46°56' E 032°00'0 0.0
2017-Oct-18 02:28N 46°56' E 032°00'0 0.0
2017-Oct-18 01:58N 46°56' E 032°00'0 0.0
2017-Oct-18 01:28N 46°56' E 032°00'0 0.0
2017-Oct-18 00:58N 46°56' E 032°00'0 0.0
2017-Oct-18 00:28N 46°56' E 032°00'0 0.0
2017-Oct-17 23:58N 46°56' E 032°00'0 0.0
2017-Oct-17 23:28N 46°56' E 032°00'0 0.0
2017-Oct-17 22:58N 46°56' E 032°00'0 0.0
2017-Oct-17 22:28N 46°56' E 032°00'0 0.0
2017-Oct-17 21:58N 46°56' E 032°00'0 0.1
2017-Oct-17 21:28N 46°56' E 032°00'0 0.1
2017-Oct-17 20:58N 46°56' E 032°00'0 0.0
2017-Oct-17 20:28N 46°56' E 032°00'0 0.0
2017-Oct-17 19:58N 46°56' E 032°00'0 0.0
2017-Oct-17 19:28N 46°56' E 032°00'0 0.0
2017-Oct-17 18:58N 46°56' E 032°00'0 0.0
2017-Oct-17 18:28N 46°56' E 032°00'0 0.0
2017-Oct-17 17:58N 46°56' E 032°00'0 0.0
2017-Oct-17 17:28N 46°56' E 032°00'0 0.1
2017-Oct-17 16:58N 46°56' E 032°00'0 0.0
2017-Oct-17 16:28N 46°56' E 032°00'0 0.0
2017-Oct-17 15:58N 46°56' E 032°00'0 0.0
2017-Oct-17 15:28N 46°56' E 032°00'0 0.0
2017-Oct-17 14:58N 46°56' E 032°00'0 0.1
2017-Oct-17 14:28N 46°56' E 032°00'0 0.1
2017-Oct-17 13:58N 46°56' E 032°01'0 0.0
2017-Oct-17 13:28N 46°56' E 032°01'0 0.0
2017-Oct-17 12:58N 46°56' E 032°01'0 0.0
2017-Oct-17 12:28N 46°56' E 032°01'0 0.0
2017-Oct-17 11:58N 46°56' E 032°01'0 0.0
2017-Oct-17 11:28N 46°56' E 032°01'0 0.0
2017-Oct-17 10:58N 46°56' E 032°01'0 0.0
2017-Oct-17 10:28N 46°56' E 032°01'0 0.0
2017-Oct-17 09:58N 46°56' E 032°01'0 0.0
2017-Oct-17 09:28N 46°56' E 032°01'0 0.0
2017-Oct-17 08:58N 46°56' E 032°01'0 0.0
2017-Oct-17 08:28N 46°57' E 032°01'0 0.2
2017-Oct-17 07:58N 46°57' E 032°00'0 0.1
2017-Oct-17 07:28N 46°57' E 032°00'0 0.1
2017-Oct-17 06:58N 46°57' E 032°00'0 0.0
2017-Oct-17 06:28N 46°57' E 032°00'0 0.0
2017-Oct-17 05:58N 46°57' E 032°00'0 0.0
2017-Oct-17 05:28N 46°57' E 032°00'0 0.0
2017-Oct-17 04:58N 46°57' E 032°00'0 0.0
2017-Oct-17 04:28N 46°57' E 032°00'0 0.0
2017-Oct-17 03:58N 46°57' E 032°00'0 0.0
2017-Oct-17 03:16N 46°57' E 032°00'0 0.0
2017-Oct-17 02:58N 46°57' E 032°00'0 0.0
2017-Oct-17 02:28N 46°57' E 032°00'0 0.0
2017-Oct-17 01:58N 46°57' E 032°00'0 0.0
2017-Oct-17 01:28N 46°57' E 032°00'0 0.0
2017-Oct-17 00:58N 46°57' E 032°00'0 0.0
2017-Oct-17 00:28N 46°57' E 032°00'0 0.0
2017-Oct-16 23:58N 46°57' E 032°00'0 0.0
2017-Oct-16 23:28N 46°57' E 032°00'0 0.0
2017-Oct-16 22:58N 46°57' E 032°00'0 0.0
2017-Oct-16 22:28N 46°57' E 032°00'0 0.0
2017-Oct-16 21:58N 46°57' E 032°00'0 0.0
2017-Oct-16 21:28N 46°57' E 032°00'0 0.0
2017-Oct-16 20:58N 46°57' E 032°00'0 0.0
2017-Oct-16 20:28N 46°57' E 032°00'0 0.0
2017-Oct-16 19:58N 46°57' E 032°00'0 0.0
2017-Oct-16 19:28N 46°57' E 032°00'0 0.0
2017-Oct-16 18:58N 46°57' E 032°00'0 0.0
2017-Oct-16 18:28N 46°57' E 032°00'0 0.0
2017-Oct-16 17:58N 46°57' E 032°00'0 0.0
2017-Oct-16 17:28N 46°57' E 032°00'0 0.1
2017-Oct-16 16:58N 46°57' E 032°00'0 0.1
2017-Oct-16 16:28N 46°57' E 032°00'0 0.1
2017-Oct-16 15:58N 46°57' E 032°01'0 0.1
2017-Oct-16 15:28N 46°57' E 032°01'0 0.1
2017-Oct-16 14:58N 46°56' E 032°01'0 0.0
2017-Oct-16 13:58N 46°56' E 032°01'0 0.0
2017-Oct-16 13:28N 46°56' E 032°01'0 0.0
2017-Oct-16 12:58N 46°56' E 032°00'0 0.0
2017-Oct-16 12:28N 46°56' E 032°01'0 0.0
2017-Oct-16 11:58N 46°56' E 032°00'0 0.0
2017-Oct-16 11:28N 46°56' E 032°00'0 0.0
2017-Oct-16 10:58N 46°56' E 032°01'0 0.0
2017-Oct-16 10:28N 46°56' E 032°01'0 0.0
2017-Oct-16 09:58N 46°56' E 032°01'0 0.0
2017-Oct-16 09:25N 46°56' E 032°01'0 0.0
2017-Oct-16 08:58N 46°56' E 032°01'0 0.0
2017-Oct-16 08:28N 46°56' E 032°00'0 0.0
2017-Oct-16 07:58N 46°56' E 032°00'0 0.0
2017-Oct-16 07:28N 46°56' E 032°01'0 0.0
2017-Oct-16 06:58N 46°56' E 032°01'0 0.0
2017-Oct-16 06:28N 46°56' E 032°01'0 0.0
2017-Oct-16 05:58N 46°56' E 032°01'0 0.0
2017-Oct-16 05:28N 46°56' E 032°01'0 0.0
2017-Oct-16 04:58N 46°56' E 032°01'0 0.0
2017-Oct-16 04:28N 46°56' E 032°01'0 0.0
2017-Oct-16 03:58N 46°56' E 032°00'0 0.0
2017-Oct-16 03:28N 46°56' E 032°00'0 0.0
2017-Oct-16 02:58N 46°56' E 032°01'0 0.0
2017-Oct-16 02:28N 46°56' E 032°01'0 0.0
2017-Oct-16 01:58N 46°56' E 032°01'0 0.0
2017-Oct-16 01:28N 46°56' E 032°01'0 0.0
2017-Oct-16 00:58N 46°56' E 032°01'0 0.0
2017-Oct-16 00:28N 46°56' E 032°00'0 0.0
2017-Oct-15 23:58N 46°56' E 032°00'0 0.0
2017-Oct-15 23:25N 46°56' E 032°00'0 0.0
2017-Oct-15 22:55N 46°56' E 032°00'0 0.0
2017-Oct-15 22:28N 46°56' E 032°00'0 0.0
2017-Oct-15 21:58N 46°56' E 032°00'0 0.0
2017-Oct-15 21:28N 46°56' E 032°00'0 0.0
2017-Oct-15 20:58N 46°56' E 032°01'0 0.0
2017-Oct-15 20:28N 46°56' E 032°01'0 0.0
2017-Oct-15 19:58N 46°56' E 032°01'0 0.0
2017-Oct-15 19:28N 46°56' E 032°01'0 0.0
2017-Oct-15 18:58N 46°56' E 032°01'0 0.0
2017-Oct-15 18:28N 46°56' E 032°01'0 0.1
2017-Oct-15 17:58N 46°56' E 032°01'0 0.2
2017-Oct-15 17:28N 46°56' E 032°01'0 0.0
2017-Oct-15 16:58N 46°57' E 032°01'0 0.0
2017-Oct-15 16:28N 46°56' E 032°01'0 0.0
2017-Oct-15 15:58N 46°56' E 032°01'0 0.0
2017-Oct-15 15:28N 46°56' E 032°01'0 0.0
2017-Oct-15 14:58N 46°56' E 032°01'0 0.0
2017-Oct-15 13:58N 46°57' E 032°01'0 0.0
2017-Oct-15 13:28N 46°57' E 032°01'0 0.0
2017-Oct-15 12:58N 46°57' E 032°01'0 0.0
2017-Oct-15 12:28N 46°57' E 032°01'0 0.0
2017-Oct-15 11:58N 46°57' E 032°01'0 0.0
2017-Oct-15 11:28N 46°57' E 032°01'0 0.0
2017-Oct-15 10:58N 46°57' E 032°01'0 0.0
2017-Oct-15 10:25N 46°57' E 032°01'0 0.0
2017-Oct-15 09:58N 46°57' E 032°01'0 0.0
2017-Oct-15 09:28N 46°57' E 032°01'0 0.0
2017-Oct-15 08:58N 46°57' E 032°01'0 0.0
2017-Oct-15 08:28N 46°57' E 032°01'0 0.0
2017-Oct-15 07:58N 46°57' E 032°01'0 0.1
2017-Oct-15 07:28N 46°57' E 032°01'0 0.0
2017-Oct-15 06:58N 46°57' E 032°01'0 0.0
2017-Oct-15 06:28N 46°57' E 032°01'0 0.0
2017-Oct-15 05:58N 46°57' E 032°01'0 0.0
2017-Oct-15 05:28N 46°57' E 032°01'0 0.0
2017-Oct-15 04:58N 46°57' E 032°01'0 0.0
2017-Oct-15 04:28N 46°57' E 032°01'0 0.0
2017-Oct-15 03:58N 46°57' E 032°01'0 0.0
2017-Oct-15 03:28N 46°57' E 032°01'0 0.0
2017-Oct-15 02:58N 46°57' E 032°01'0 0.0
2017-Oct-15 02:28N 46°57' E 032°01'0 0.0
2017-Oct-15 01:58N 46°57' E 032°01'0 0.0
2017-Oct-15 01:28N 46°57' E 032°01'0 0.0
2017-Oct-15 00:58N 46°57' E 032°01'0 0.0
2017-Oct-15 00:28N 46°57' E 032°01'0 0.0
2017-Oct-14 23:58N 46°57' E 032°01'0 0.0
2017-Oct-14 23:28N 46°56' E 032°01'0 0.0
2017-Oct-14 22:58N 46°56' E 032°01'0 0.0
2017-Oct-14 22:28N 46°56' E 032°01'0 0.0
2017-Oct-14 21:58N 46°56' E 032°01'0 0.0
2017-Oct-14 21:28N 46°57' E 032°01'0 0.0
2017-Oct-14 20:58N 46°57' E 032°01'0 0.1
2017-Oct-14 20:28N 46°56' E 032°01'0 0.0
2017-Oct-14 19:58N 46°56' E 032°01'0 0.1
2017-Oct-14 19:28N 46°56' E 032°01'0 0.1
2017-Oct-14 18:58N 46°56' E 032°00'0 0.2
2017-Oct-14 18:28N 46°57' E 032°01'0 0.2
2017-Oct-14 17:58N 46°57' E 032°01'0 0.1
2017-Oct-14 17:28N 46°57' E 032°00'0 0.3
2017-Oct-14 17:00N 46°57' E 032°00'1 1.0
2017-Oct-14 16:31N 46°57' E 031°60'0 0.0
2017-Oct-14 15:57N 46°57' E 031°60'0 0.0
2017-Oct-14 15:30N 46°57' E 031°60'0 0.0
2017-Oct-14 15:00N 46°57' E 031°60'0 0.0
2017-Oct-14 14:30N 46°57' E 031°60'0 0.0
2017-Oct-14 14:00N 46°57' E 031°60'0 0.0
2017-Oct-14 13:30N 46°57' E 031°60'0 0.0
2017-Oct-14 13:00N 46°57' E 031°60'0 0.0
2017-Oct-14 12:30N 46°57' E 031°60'0 0.0
2017-Oct-14 12:00N 46°57' E 031°60'0 0.0
2017-Oct-14 11:30N 46°57' E 031°60'0 0.0
2017-Oct-14 11:00N 46°57' E 031°60'0 0.0
2017-Oct-14 10:30N 46°57' E 031°60'0 0.0
2017-Oct-14 10:00N 46°57' E 031°60'0 0.0
2017-Oct-14 09:30N 46°57' E 031°60'0 0.0
2017-Oct-14 09:00N 46°57' E 031°60'0 0.0
2017-Oct-14 08:30N 46°57' E 031°60'0 0.0
2017-Oct-14 08:00N 46°57' E 031°60'0 0.0
2017-Oct-14 07:30N 46°57' E 031°60'0 0.0
2017-Oct-14 07:00N 46°57' E 031°60'0 0.0
2017-Oct-14 06:30N 46°57' E 031°60'0 0.0
2017-Oct-14 06:00N 46°57' E 031°60'0 0.0
2017-Oct-14 05:30N 46°57' E 031°60'0 0.0
2017-Oct-14 05:00N 46°57' E 031°60'0 0.0
2017-Oct-14 04:30N 46°57' E 031°60'0 0.0
2017-Oct-14 04:00N 46°57' E 031°60'0 0.0
2017-Oct-14 03:30N 46°57' E 031°60'0 0.0
2017-Oct-14 03:00N 46°57' E 031°60'0 0.0
2017-Oct-14 02:30N 46°57' E 031°60'0 0.0
2017-Oct-14 02:00N 46°57' E 031°60'0 0.0
2017-Oct-14 01:30N 46°57' E 031°60'0 0.0
2017-Oct-14 01:00N 46°57' E 031°60'0 0.0
2017-Oct-14 00:30N 46°57' E 031°60'0 0.0
2017-Oct-14 00:00N 46°57' E 031°60'0 0.0
2017-Oct-13 23:30N 46°57' E 031°60'0 0.0
2017-Oct-13 23:00N 46°57' E 031°60'0 0.0
2017-Oct-13 22:30N 46°57' E 031°60'0 0.0
2017-Oct-13 22:00N 46°57' E 031°60'0 0.0
2017-Oct-13 21:30N 46°57' E 031°60'0 0.0
2017-Oct-13 21:00N 46°57' E 031°60'0 0.0
2017-Oct-13 20:30N 46°57' E 031°60'0 0.0
2017-Oct-13 20:00N 46°57' E 031°60'0 0.0
2017-Oct-13 19:30N 46°57' E 031°60'0 0.0
2017-Oct-13 19:00N 46°57' E 031°60'0 0.0
2017-Oct-13 18:30N 46°57' E 031°60'0 0.0
2017-Oct-13 18:00N 46°57' E 031°60'0 0.0
2017-Oct-13 17:30N 46°57' E 031°60'0 0.0
2017-Oct-13 17:00N 46°57' E 031°60'0 0.0
2017-Oct-13 16:30N 46°57' E 031°60'0 0.0
2017-Oct-13 16:00N 46°57' E 031°60'0 0.0
2017-Oct-13 15:27N 46°57' E 031°60'0 0.0
2017-Oct-13 15:00N 46°57' E 031°60'0 0.0
2017-Oct-13 14:30N 46°57' E 031°60'0 0.0
2017-Oct-13 14:00N 46°57' E 031°60'0 0.0
2017-Oct-13 13:30N 46°57' E 031°60'0 0.0
2017-Oct-13 13:00N 46°57' E 031°60'0 0.0
2017-Oct-13 12:30N 46°57' E 031°60'0 0.0
2017-Oct-13 12:00N 46°57' E 031°60'0 0.0
2017-Oct-13 11:30N 46°57' E 031°60'0 0.0
2017-Oct-13 11:00N 46°57' E 031°60'0 0.0
2017-Oct-13 10:30N 46°57' E 031°60'0 0.0
2017-Oct-13 10:00N 46°57' E 031°60'0 0.0
2017-Oct-13 09:30N 46°57' E 031°60'0 0.0
2017-Oct-13 09:00N 46°57' E 031°60'0 0.0
2017-Oct-13 08:30N 46°57' E 031°60'0 0.0
2017-Oct-13 08:00N 46°57' E 031°60'0 0.0
2017-Oct-13 07:30N 46°57' E 031°60'0 0.0
2017-Oct-13 07:00N 46°57' E 031°60'0 0.0
2017-Oct-13 06:30N 46°57' E 031°60'0 0.0
2017-Oct-13 06:00N 46°57' E 031°60'0 0.0
2017-Oct-13 05:30N 46°57' E 031°60'0 0.0
2017-Oct-13 04:57N 46°57' E 031°60'0 0.0
2017-Oct-13 04:30N 46°57' E 031°60'0 0.0
2017-Oct-13 04:00N 46°57' E 031°60'0 0.0
2017-Oct-13 03:30N 46°57' E 031°60'0 0.0
2017-Oct-13 03:00N 46°57' E 031°60'0 0.0
2017-Oct-13 02:30N 46°57' E 031°60'0 0.0
2017-Oct-13 02:00N 46°57' E 031°60'0 0.0
2017-Oct-13 01:30N 46°57' E 031°60'0 0.0
2017-Oct-13 01:00N 46°57' E 031°60'0 0.0
2017-Oct-13 00:30N 46°57' E 031°60'0 0.0
2017-Oct-13 00:00N 46°57' E 031°60'0 0.0
2017-Oct-12 23:30N 46°57' E 031°60'0 0.0
2017-Oct-12 23:00N 46°57' E 031°60'0 0.0
2017-Oct-12 22:30N 46°57' E 031°60'0 0.0
2017-Oct-12 22:00N 46°57' E 031°60'0 0.0
2017-Oct-12 21:30N 46°57' E 031°60'0 0.0
2017-Oct-12 21:00N 46°57' E 031°60'0 0.0
2017-Oct-12 20:30N 46°57' E 031°60'0 0.0
2017-Oct-12 20:00N 46°57' E 031°60'0 0.0
2017-Oct-12 19:30N 46°57' E 031°60'0 0.0
2017-Oct-12 19:00N 46°57' E 031°60'0 0.0
2017-Oct-12 18:30N 46°57' E 031°60'0 0.0
2017-Oct-12 18:00N 46°57' E 031°60'0 0.0
2017-Oct-12 17:30N 46°57' E 031°60'0 0.0
2017-Oct-12 17:00N 46°57' E 031°60'0 0.0
2017-Oct-12 16:30N 46°57' E 031°60'0 0.0
2017-Oct-12 16:00N 46°57' E 031°60'0 0.0
2017-Oct-12 15:30N 46°57' E 031°60'0 0.0
2017-Oct-12 15:00N 46°57' E 031°60'0 0.0
2017-Oct-12 14:30N 46°57' E 031°60'0 0.0
2017-Oct-12 14:00N 46°57' E 031°60'0 0.0
2017-Oct-12 13:30N 46°57' E 031°60'0 0.0
2017-Oct-12 12:57N 46°57' E 031°60'0 0.0
2017-Oct-12 12:30N 46°57' E 031°60'0 0.0
2017-Oct-12 11:54N 46°57' E 031°60'0 0.0
2017-Oct-12 11:30N 46°57' E 031°60'0 0.0
2017-Oct-12 11:00N 46°57' E 031°60'0 0.0
2017-Oct-12 10:30N 46°57' E 031°60'0 0.0
2017-Oct-12 10:00N 46°57' E 031°60'0 0.0
2017-Oct-12 09:30N 46°57' E 031°60'0 0.0
2017-Oct-12 09:00N 46°57' E 031°60'0 0.0
2017-Oct-12 08:30N 46°57' E 031°60'0 0.0
2017-Oct-12 08:00N 46°57' E 031°60'0 0.0
2017-Oct-12 07:30N 46°57' E 031°60'0 0.0
2017-Oct-12 07:00N 46°57' E 031°60'0 0.0
2017-Oct-12 06:30N 46°57' E 031°60'0 0.0
2017-Oct-12 06:00N 46°57' E 031°60'0 0.0
2017-Oct-12 05:30N 46°57' E 031°60'0 0.0
2017-Oct-12 04:57N 46°57' E 031°60'0 0.0
2017-Oct-12 04:30N 46°57' E 031°60'0 0.0
2017-Oct-12 04:00N 46°57' E 031°60'0 0.0
2017-Oct-12 03:30N 46°57' E 031°60'0 0.0
2017-Oct-12 03:00N 46°57' E 031°60'0 0.0
2017-Oct-12 02:30N 46°57' E 031°60'0 0.0
2017-Oct-12 02:00N 46°57' E 031°60'0 0.0
2017-Oct-12 01:30N 46°57' E 031°60'  

Dump ship's entire track history